Avalon, Wisconsin
Current Conditions -  °F | °C
As of 11:35 PM on Wednesday 26 Nov 2014 (Local Time) from KJVL Reporting Station
Haze Haze  
Wind Chill: -10°   Ceiling: 700
Heat Index: -10°   Visibility: 1.5mi
Dew Point: -11°   Wind: 0mph
Humidity: 93%   Direction: NA
Pressure: 30.22"   Gusts: NA
Location:  42.63°N, 88.87°W
Report Text: KJVL 270535Z AUTO 00000KT 1 1/2SM BR VV007 M10/M11 A3022 RMK AO2
Loading
Personal Weather Stations






























Interactive Weather Map New forecast layout! Learn more

10-Day Weather Forecast

Advertisements
Track Severe Weather on mobile